Time;durP1;ratioP1;P1;durP2;ratioP2;P2;SDS_P1;SDS_P2;PMS_P1;PMS_P2;Temp;Humidity;BMP_temperature;BMP_pressure;BME280_temperature;BME280_humidity;BME280_pressure;Samples;Min_cycle;Max_cycle;Signal;HPM_P1;HPM_P2
2023/04/26 00:02:06;;;;;;;14.30;6.03;;;;;;;;;;5011451;28;20053;-89
2023/04/26 00:04:32;;;;;;;10.60;5.50;;;;;;;;;;5023002;28;20029;-88
2023/04/26 00:06:59;;;;;;;10.20;5.15;;;;;;;;;;5010469;28;20033;-89
2023/04/26 00:09:25;;;;;;;10.93;5.03;;;;;;;;;;5016074;28;20026;-87
2023/04/26 00:11:51;;;;;;;11.30;5.82;;;;;;;;;;5008156;28;20034;-87
2023/04/26 00:14:17;;;;;;;11.95;5.30;;;;;;;;;;5004621;28;20096;-86
2023/04/26 00:16:43;;;;;;;11.57;5.93;;;;;;;;;;5030748;28;20031;-86
2023/04/26 00:19:10;;;;;;;10.52;5.03;;;;;;;;;;5018086;28;20019;-87
2023/04/26 00:21:36;;;;;;;11.68;5.15;;;;;;;;;;5023960;28;20010;-88
2023/04/26 00:24:04;;;;;;;9.95;4.82;;;;;;;;;;5025972;28;20030;-87
2023/04/26 00:26:30;;;;;;;12.50;5.50;;;;;;;;;;5032629;28;20037;-89
2023/04/26 00:28:57;;;;;;;9.70;4.93;;;;;;;;;;5026229;28;20014;-89
2023/04/26 00:31:23;;;;;;;11.15;6.18;;;;;;;;;;5009073;28;20034;-87
2023/04/26 00:33:51;;;;;;;10.10;4.97;;;;;;;;;;5010662;28;20080;-88
2023/04/26 00:36:18;;;;;;;8.68;4.75;;;;;;;;;;5024075;28;20029;-86
2023/04/26 00:38:47;;;;;;;11.40;4.78;;;;;;;;;;5015642;28;20006;-87
2023/04/26 00:41:13;;;;;;;10.90;4.80;;;;;;;;;;5030382;28;20038;-89
2023/04/26 00:43:40;;;;;;;13.55;5.07;;;;;;;;;;5012319;28;20014;-88
2023/04/26 00:46:22;;;;;;;15.88;6.20;;;;;;;;;;5013865;28;20049;-88
2023/04/26 00:48:48;;;;;;;12.40;5.10;;;;;;;;;;5013066;28;20041;-88
2023/04/26 00:51:15;;;;;;;10.55;5.15;;;;;;;;;;5012808;28;20015;-87
2023/04/26 00:53:41;;;;;;;16.45;6.18;;;;;;;;;;5026921;28;20034;-87
2023/04/26 00:56:08;;;;;;;12.02;5.47;;;5.40;99.90;;;;;;5013722;28;20018;-87
2023/04/26 00:58:34;;;;;;;10.90;5.05;;;;;;;;;;5020186;28;20021;-87
2023/04/26 01:01:01;;;;;;;10.02;4.60;;;;;;;;;;5011825;28;20019;-87
2023/04/26 01:03:29;;;;;;;15.60;5.90;;;;;;;;;;5015049;28;20041;-87
2023/04/26 01:05:55;;;;;;;10.13;5.18;;;;;;;;;;5008194;28;20046;-87
2023/04/26 01:08:23;;;;;;;10.95;5.32;;;;;;;;;;5016209;28;20022;-88
2023/04/26 01:10:49;;;;;;;8.98;5.50;;;;;;;;;;5013019;28;20010;-86
2023/04/26 01:13:15;;;;;;;9.75;5.15;;;;;;;;;;5007660;28;20078;-87
2023/04/26 01:15:48;;;;;;;11.70;5.35;;;;;;;;;;5037432;28;20085;-88
2023/04/26 01:18:14;;;;;;;13.05;5.35;;;;;;;;;;5030711;28;20022;-88
2023/04/26 01:20:41;;;;;;;9.15;5.10;;;;;;;;;;5007798;28;20046;-87
2023/04/26 01:23:08;;;;;;;11.00;5.18;;;;;;;;;;5017723;28;20022;-87
2023/04/26 01:25:34;;;;;;;10.10;5.88;;;;;;;;;;5012088;28;20077;-88
2023/04/26 01:28:00;;;;;;;11.60;5.30;;;;;;;;;;5033224;28;20065;-87
2023/04/26 01:30:26;;;;;;;14.60;6.03;;;;;;;;;;5024538;28;20079;-87
2023/04/26 01:32:52;;;;;;;10.65;6.03;;;;;;;;;;5020200;28;20030;-85
2023/04/26 01:35:18;;;;;;;11.30;5.65;;;;;;;;;;5016665;28;20014;-87
2023/04/26 01:37:47;;;;;;;11.57;5.78;;;;;;;;;;5012669;28;20035;-87
2023/04/26 01:40:13;;;;;;;12.70;6.03;;;;;;;;;;5018084;28;20033;-85
2023/04/26 01:42:39;;;;;;;10.02;5.80;;;;;;;;;;5022470;28;20119;-86
2023/04/26 01:45:05;;;;;;;13.00;5.95;;;;;;;;;;5011057;28;20085;-85
2023/04/26 01:47:31;;;;;;;12.80;5.53;;;;;;;;;;5014586;28;20018;-88
2023/04/26 01:49:57;;;;;;;11.68;5.03;;;;;;;;;;5015783;28;20039;-88
2023/04/26 01:52:23;;;;;;;10.80;5.25;;;;;;;;;;5015120;28;20053;-86
2023/04/26 01:54:50;;;;;;;11.25;5.80;;;;;;;;;;5011294;28;20317;-86
2023/04/26 01:57:16;;;;;;;13.40;6.72;;;;;;;;;;5030947;28;20021;-88
2023/04/26 01:59:42;;;;;;;12.20;5.38;;;;;;;;;;5008550;28;20018;-87
2023/04/26 02:02:08;;;;;;;10.55;5.68;;;;;;;;;;5028619;28;20031;-87
2023/04/26 02:04:34;;;;;;;12.05;5.60;;;;;;;;;;5010195;28;20014;-87
2023/04/26 02:07:00;;;;;;;15.73;5.85;;;;;;;;;;5011756;28;20060;-87
2023/04/26 02:09:28;;;;;;;11.50;5.70;;;;;;;;;;5015702;28;20086;-88
2023/04/26 02:11:54;;;;;;;11.07;5.50;;;;;;;;;;5027708;28;20017;-88
2023/04/26 02:14:20;;;;;;;14.30;5.85;;;;;;;;;;5013304;28;20052;-88
2023/04/26 02:16:46;;;;;;;13.52;6.00;;;;;;;;;;5029283;28;20021;-86
2023/04/26 02:19:13;;;;;;;11.95;5.35;;;;;;;;;;5035664;28;20029;-88
2023/04/26 02:21:59;;;;;;;9.23;4.97;;;;;;;;;;5011788;28;20022;-86
2023/04/26 02:24:25;;;;;;;11.60;5.20;;;;;;;;;;5017039;28;20049;-87
2023/04/26 02:26:53;;;;;;;13.80;6.20;;;;;;;;;;5009643;28;20037;-85
2023/04/26 02:29:19;;;;;;;15.10;5.60;;;;;;;;;;5026093;28;20028;-87
2023/04/26 02:31:48;;;;;;;12.02;6.13;;;;;;;;;;5023408;28;20029;-85
2023/04/26 02:34:13;;;;;;;11.75;5.30;;;;;;;;;;5004178;28;20015;-85
2023/04/26 02:36:39;;;;;;;11.25;5.13;;;;;;;;;;5006903;28;20052;-86
2023/04/26 02:39:06;;;;;;;12.43;5.10;;;;;;;;;;5022811;28;20014;-84
2023/04/26 02:41:32;;;;;;;12.68;5.10;;;;;;;;;;5022761;28;20109;-87
2023/04/26 02:43:58;;;;;;;11.40;5.35;;;;;;;;;;5014633;28;20034;-85
2023/04/26 02:46:25;;;;;;;12.23;5.03;;;;;;;;;;5028552;28;20030;-87
2023/04/26 02:48:51;;;;;;;13.00;6.25;;;;;;;;;;5007424;28;20045;-85
2023/04/26 02:51:17;;;;;;;10.57;5.10;;;;;;;;;;5030269;28;20013;-86
2023/04/26 02:53:52;;;;;;;10.77;5.22;;;;;;;;;;5012837;28;20038;-86
2023/04/26 02:56:18;;;;;;;14.38;5.10;;;;;;;;;;5022884;28;20185;-88
2023/04/26 02:58:45;;;;;;;13.90;5.82;;;;;;;;;;5007855;28;20014;-85
2023/04/26 03:01:13;;;;;;;10.85;5.50;;;;;;;;;;5008078;28;20105;-88
2023/04/26 03:03:39;;;;;;;10.60;5.15;;;;;;;;;;5002041;28;20018;-86
2023/04/26 03:06:05;;;;;;;9.75;4.75;;;;;;;;;;5011430;28;20145;-85
2023/04/26 03:08:33;;;;;;;12.50;5.35;;;;;;;;;;5022573;28;20034;-84
2023/04/26 03:11:00;;;;;;;13.68;5.15;;;;;;;;;;5004818;28;20038;-87
2023/04/26 03:13:26;;;;;;;10.65;4.28;;;;;;;;;;5004255;28;20307;-86
2023/04/26 03:15:52;;;;;;;13.15;4.93;;;;;;;;;;5004595;28;20038;-88
2023/04/26 03:18:18;;;;;;;8.13;4.50;;;;;;;;;;4991782;28;20018;-87
2023/04/26 03:20:48;;;;;;;11.30;4.78;;;;;;;;;;5005119;28;20044;-86
2023/04/26 03:23:14;;;;;;;10.50;5.13;;;;;;;;;;5004550;28;20010;-87
2023/04/26 03:25:40;;;;;;;11.68;4.68;;;;;;;;;;5017918;28;20026;-86
2023/04/26 03:28:06;;;;;;;8.82;4.55;;;;;;;;;;5001480;28;20031;-86
2023/04/26 03:30:32;;;;;;;9.65;4.43;;;;;;;;;;5002622;28;20029;-87
2023/04/26 03:32:58;;;;;;;10.50;4.88;;;;;;;;;;5021840;28;20032;-86
2023/04/26 03:35:24;;;;;;;10.40;4.72;;;;;;;;;;4993514;28;20062;-85
2023/04/26 03:37:50;;;;;;;10.52;4.97;;;;;;;;;;5000532;28;20033;-87
2023/04/26 03:40:16;;;;;;;14.60;6.72;;;;;;;;;;5009701;28;20034;-87
2023/04/26 03:42:42;;;;;;;9.63;5.15;;;;;;;;;;5024205;28;20032;-85
2023/04/26 03:45:08;;;;;;;12.63;5.68;;;;;;;;;;5005607;28;20125;-87
2023/04/26 03:47:34;;;;;;;11.48;5.18;;;;;;;;;;5020723;28;20015;-86
2023/04/26 03:50:00;;;;;;;12.57;5.38;;;;;;;;;;4999414;28;20013;-88
2023/04/26 03:52:26;;;;;;;18.25;5.38;;;;;;;;;;4999496;28;20296;-84
2023/04/26 03:54:52;;;;;;;8.73;5.20;;;;;;;;;;5003509;28;20011;-86
2023/04/26 03:57:18;;;;;;;10.13;5.10;;;;;;;;;;5021423;28;20061;-87
2023/04/26 03:59:44;;;;;;;11.98;5.70;;;;;;;;;;4998234;28;20007;-84
2023/04/26 04:02:10;;;;;;;10.88;5.25;;;;;;;;;;5005113;28;20036;-86
2023/04/26 04:04:36;;;;;;;9.35;5.60;;;;;;;;;;5001493;28;20050;-87
2023/04/26 04:07:02;;;;;;;13.77;6.20;;;;;;;;;;5003886;28;20031;-86
2023/04/26 04:09:28;;;;;;;16.02;5.35;;;;;;;;;;5017248;28;20038;-86
2023/04/26 04:11:57;;;;;;;13.38;5.45;;;;;;;;;;4999203;28;20429;-85
2023/04/26 04:14:23;;;;;;;9.57;5.72;;;;;;;;;;5014809;28;20022;-87
2023/04/26 04:16:49;;;;;;;11.63;5.10;;;;;;;;;;5026009;28;20038;-87
2023/04/26 04:19:15;;;;;;;13.38;5.35;;;;;;;;;;5018648;28;20018;-87
2023/04/26 04:21:42;;;;;;;11.45;4.75;;;;;;;;;;5025721;28;20022;-86
2023/04/26 04:24:08;;;;;;;12.48;5.47;;;;;;;;;;5024640;28;20029;-87
2023/04/26 04:26:34;;;;;;;9.43;5.30;;;;;;;;;;5008215;28;20034;-84
2023/04/26 04:29:07;;;;;;;14.30;6.30;;;;;;;;;;5007762;28;20034;-84
2023/04/26 04:31:33;;;;;;;11.00;5.45;;;;;;;;;;5008319;28;20146;-84
2023/04/26 04:34:01;;;;;;;9.63;5.40;;;;;;;;;;5004773;28;20023;-85
2023/04/26 04:36:27;;;;;;;13.07;5.35;;;;;;;;;;5029015;28;20019;-86
2023/04/26 04:38:53;;;;;;;14.80;6.75;;;;;;;;;;5006343;28;20049;-86
2023/04/26 04:41:21;;;;;;;11.55;5.03;;;;;;;;;;5028047;28;20041;-87
2023/04/26 04:43:47;;;;;;;12.20;4.93;;;;;;;;;;4998689;28;20006;-87
2023/04/26 04:46:13;;;;;;;8.10;4.80;;;;;;;;;;5006857;28;20018;-87
2023/04/26 04:48:43;;;;;;;13.82;6.05;;;;;;;;;;5007335;28;20056;-87
2023/04/26 04:51:09;;;;;;;8.68;5.03;;;;;;;;;;5010793;28;20053;-90
2023/04/26 04:53:35;;;;;;;11.73;5.28;;;;;;;;;;5017070;28;20061;-87
2023/04/26 04:56:01;;;;;;;10.80;5.05;;;;;;;;;;5004873;28;20022;-89
2023/04/26 04:58:27;;;;;;;11.77;5.75;;;;;;;;;;5016490;28;20140;-88
2023/04/26 05:00:54;;;;;;;10.38;5.50;;;;;;;;;;5022597;28;20034;-88
2023/04/26 05:03:20;;;;;;;14.38;5.40;;;;;;;;;;5004948;28;20106;-87
2023/04/26 05:05:49;;;;;;;13.32;5.88;;;;;;;;;;5005625;28;20101;-87
2023/04/26 05:08:15;;;;;;;13.05;5.63;;;;;;;;;;5005383;28;20199;-87
2023/04/26 05:10:41;;;;;;;10.15;5.72;;;;;;;;;;5010672;28;20085;-87
2023/04/26 05:13:07;;;;;;;12.65;5.47;;;;;;;;;;5024054;28;20026;-88
2023/04/26 05:15:33;;;;;;;10.00;4.97;;;;;;;;;;5020374;28;20053;-86
2023/04/26 05:17:59;;;;;;;15.15;6.18;;;;;;;;;;5002900;28;20026;-88
2023/04/26 05:20:25;;;;;;;13.07;5.88;;;;;;;;;;5020733;28;20753;-86
2023/04/26 05:22:51;;;;;;;16.00;6.20;;;;;;;;;;5020082;28;20026;-87
2023/04/26 05:25:17;;;;;;;10.43;5.53;;;;;;;;;;5008824;28;20022;-87
2023/04/26 05:27:44;;;;;;;14.45;5.97;;;;;;;;;;5005260;28;20034;-88
2023/04/26 05:30:11;;;;;;;15.00;6.20;;;;;;;;;;5001027;28;20018;-88
2023/04/26 05:32:37;;;;;;;11.10;5.93;;;;;;;;;;5002730;28;20040;-86
2023/04/26 05:35:04;;;;;;;11.73;5.82;;;;;;;;;;5022599;28;20038;-89
2023/04/26 05:37:30;;;;;;;11.40;5.90;;;;;;;;;;4991678;28;20019;-90
2023/04/26 05:39:56;;;;;;;14.10;6.57;;;;;;;;;;5022472;28;20029;-89
2023/04/26 05:42:22;;;;;;;14.80;6.93;;;;;;;;;;5005720;28;20033;-88
2023/04/26 05:44:48;;;;;;;11.68;5.82;;;;;;;;;;5021399;28;20019;-89
2023/04/26 05:47:14;;;;;;;14.45;5.75;;;;;;;;;;5009384;28;20010;-90
2023/04/26 05:49:40;;;;;;;10.93;6.30;;;;;;;;;;5008960;28;20056;-87
2023/04/26 05:52:06;;;;;;;13.27;6.85;;;;;;;;;;5023739;28;20038;-88
2023/04/26 05:54:32;;;;;;;9.68;5.65;;;;;;;;;;5011122;28;20115;-89
2023/04/26 05:56:58;;;;;;;12.48;6.03;;;;;;;;;;5006386;28;20026;-88
2023/04/26 05:59:31;;;;;;;10.52;6.10;;;;;;;;;;5024158;28;20042;-88
2023/04/26 06:01:57;;;;;;;12.57;5.60;;;;;;;;;;5001338;28;20025;-87
2023/04/26 06:04:23;;;;;;;11.48;5.93;;;;;;;;;;5004355;28;20043;-89
2023/04/26 06:06:49;;;;;;;10.13;5.22;;;;;;;;;;5004145;28;20022;-88
2023/04/26 06:09:15;;;;;;;10.10;5.78;;;;;;;;;;5021795;28;20037;-86
2023/04/26 06:11:41;;;;;;;11.73;5.72;;;;;;;;;;5009379;28;20089;-88
2023/04/26 06:14:10;;;;;;;9.77;5.47;;;;;;;;;;5006117;28;20034;-88
2023/04/26 06:16:36;;;;;;;12.40;5.93;;;;;;;;;;5025498;28;20026;-87
2023/04/26 06:19:02;;;;;;;14.25;5.93;;;;;;;;;;5023091;28;20038;-88
2023/04/26 06:21:28;;;;;;;20.10;6.88;;;;;;;;;;5008809;28;20018;-88
2023/04/26 06:23:54;;;;;;;11.40;5.63;;;;;;;;;;5021739;28;20022;-89
2023/04/26 06:26:20;;;;;;;9.77;5.22;;;;;;;;;;5026236;28;20077;-85
2023/04/26 06:28:46;;;;;;;9.48;4.85;;;;;;;;;;5013346;28;20657;-87
2023/04/26 06:31:12;;;;;;;12.02;5.40;;;;;;;;;;5019798;28;20007;-88
2023/04/26 06:33:38;;;;;;;8.80;4.93;;;;;;;;;;5007541;28;20028;-88
2023/04/26 06:36:04;;;;;;;9.05;4.53;;;;;;;;;;5008141;28;20017;-88
2023/04/26 06:38:30;;;;;;;14.18;5.82;;;;;;;;;;5003182;28;20053;-88
2023/04/26 06:40:56;;;;;;;12.18;5.97;;;;;;;;;;5001195;28;20026;-87
2023/04/26 06:43:22;;;;;;;12.90;5.15;;;;;;;;;;5006210;28;20082;-87
2023/04/26 06:45:48;;;;;;;7.93;4.88;;;6.10;99.90;;;;;;4997722;28;20019;-87
2023/04/26 06:48:14;;;;;;;11.75;5.20;;;;;;;;;;5019197;28;20142;-88
2023/04/26 06:50:41;;;;;;;9.43;4.93;;;;;;;;;;5011087;28;20501;-87
2023/04/26 06:53:07;;;;;;;12.73;5.43;;;;;;;;;;5004035;28;20044;-87
2023/04/26 06:55:33;;;;;;;7.32;4.65;;;;;;;;;;5019068;28;20034;-88
2023/04/26 06:57:59;;;;;;;11.95;5.53;;;;;;;;;;5009876;28;20077;-88
2023/04/26 07:00:26;;;;;;;12.55;5.63;;;;;;;;;;5005272;28;20247;-88
2023/04/26 07:02:52;;;;;;;12.23;5.20;;;;;;;;;;5021953;28;20018;-86
2023/04/26 07:05:18;;;;;;;11.95;4.75;;;;;;;;;;5009163;28;20009;-87
2023/04/26 07:07:44;;;;;;;11.38;4.97;;;;;;;;;;5019932;28;20014;-87
2023/04/26 07:10:10;;;;;;;12.57;5.00;;;;;;;;;;5005029;28;20048;-86
2023/04/26 07:12:37;;;;;;;11.40;5.28;;;;;;;;;;5006262;28;20041;-87
2023/04/26 07:15:05;;;;;;;15.10;5.35;;;;;;;;;;5026176;28;20044;-88
2023/04/26 07:17:31;;;;;;;12.95;4.90;;;;;;;;;;5010249;28;20014;-88
2023/04/26 07:20:00;;;;;;;9.52;4.90;;;8.30;99.90;;;;;;5007115;28;20049;-88
2023/04/26 07:22:26;;;;;;;15.55;4.68;;;;;;;;;;5005662;28;20038;-87
2023/04/26 07:24:52;;;;;;;10.20;4.15;;;;;;;;;;5016174;28;20018;-88
2023/04/26 07:27:18;;;;;;;8.60;5.07;;;;;;;;;;5002554;28;20023;-87
2023/04/26 07:29:44;;;;;;;14.07;4.45;;;;;;;;;;5008307;28;20010;-88
2023/04/26 07:32:10;;;;;;;8.18;4.25;;;;;;;;;;5017463;28;20034;-89
2023/04/26 07:34:36;;;;;;;9.63;4.30;;;;;;;;;;5004430;28;20014;-87
2023/04/26 07:37:03;;;;;;;9.10;4.32;;;;;;;;;;5002598;28;20264;-88
2023/04/26 07:39:29;;;;;;;9.52;4.75;;;;;;;;;;5022833;28;20094;-88
2023/04/26 07:41:55;;;;;;;10.77;4.40;;;;;;;;;;5014310;28;20022;-89
2023/04/26 07:44:21;;;;;;;10.30;4.40;;;;;;;;;;5006340;28;20089;-90
2023/04/26 07:46:47;;;;;;;10.60;4.93;;;;;;;;;;5027235;28;20022;-88
2023/04/26 07:49:13;;;;;;;11.38;4.28;;;;;;;;;;5004732;28;20026;-87
2023/04/26 07:51:40;;;;;;;11.00;4.72;;;;;;;;;;5012333;28;20014;-88
2023/04/26 07:54:06;;;;;;;9.27;4.45;;;;;;;;;;5003537;28;20018;-88
2023/04/26 07:56:32;;;;;;;11.55;4.50;;;;;;;;;;5006192;28;20013;-89
2023/04/26 07:58:57;;;;;;;9.82;4.20;;;;;;;;;;5022672;28;20033;-87
2023/04/26 08:01:23;;;;;;;10.65;3.95;;;;;;;;;;5005588;28;20042;-89
2023/04/26 08:03:54;;;;;;;8.43;3.20;;;;;;;;;;5003167;28;20029;-88
2023/04/26 08:06:21;;;;;;;7.65;3.55;;;;;;;;;;5005574;28;20006;-88
2023/04/26 08:08:49;;;;;;;9.55;3.55;;;;;;;;;;5005429;28;20049;-88
2023/04/26 08:11:15;;;;;;;8.82;3.45;;;;;;;;;;5005842;28;20078;-86
2023/04/26 08:13:45;;;;;;;9.48;3.22;;;;;;;;;;5003443;28;20036;-89
2023/04/26 08:16:11;;;;;;;9.73;3.30;;;;;;;;;;5008875;28;20034;-87
2023/04/26 08:18:37;;;;;;;7.78;3.50;;;;;;;;;;4993768;28;20049;-89
2023/04/26 08:21:05;;;;;;;6.82;3.50;;;;;;;;;;5004985;28;20038;-89
2023/04/26 08:23:35;;;;;;;10.82;3.42;;;10.80;99.90;;;;;;4999991;28;20026;-86
2023/04/26 08:26:01;;;;;;;8.65;3.05;;;;;;;;;;5017866;28;20002;-87
2023/04/26 08:28:27;;;;;;;7.78;3.05;;;;;;;;;;5005396;28;20037;-88
2023/04/26 08:30:54;;;;;;;11.13;3.30;;;;;;;;;;5018321;28;20031;-85
2023/04/26 08:33:20;;;;;;;6.68;2.90;;;;;;;;;;5008614;28;20034;-87
2023/04/26 08:35:46;;;;;;;9.05;3.35;;;;;;;;;;5007319;28;20010;-87
2023/04/26 08:38:12;;;;;;;7.18;3.00;;;;;;;;;;5005798;28;20219;-87
2023/04/26 08:40:38;;;;;;;6.57;3.20;;;;;;;;;;5005963;28;20017;-89
2023/04/26 08:43:04;;;;;;;9.23;3.28;;;;;;;;;;5005095;28;20049;-87
2023/04/26 08:45:30;;;;;;;6.88;3.30;;;;;;;;;;5023568;28;20018;-87
2023/04/26 08:48:02;;;;;;;8.25;2.90;;;11.60;99.90;;;;;;5005308;28;20057;-87
2023/04/26 08:50:30;;;;;;;9.40;3.22;;;11.40;99.90;;;;;;5005265;28;20538;-87
2023/04/26 08:52:56;;;;;;;8.30;2.97;;;;;;;;;;5005430;28;20085;-88
2023/04/26 08:55:22;;;;;;;8.90;3.88;;;;;;;;;;5022892;28;20018;-88
2023/04/26 08:57:49;;;;;;;10.18;3.58;;;11.50;99.90;;;;;;5004083;28;20084;-88
2023/04/26 09:00:17;;;;;;;6.82;2.97;;;11.50;99.90;;;;;;5007954;28;20007;-88
2023/04/26 09:02:48;;;;;;;7.85;3.50;;;11.60;99.90;;;;;;5006866;28;20035;-90
2023/04/26 09:05:15;;;;;;;9.73;3.17;;;;;;;;;;5006116;28;20029;-88
2023/04/26 09:07:43;;;;;;;8.63;3.22;;;11.70;99.90;;;;;;5013330;28;20018;-89
2023/04/26 09:10:10;;;;;;;10.35;3.35;;;11.70;99.90;;;;;;5020293;28;20006;-88
2023/04/26 09:12:37;;;;;;;7.53;3.08;;;;;;;;;;5026829;28;20042;-89
2023/04/26 09:15:03;;;;;;;6.80;3.28;;;;;;;;;;5005217;28;20030;-87
2023/04/26 09:17:37;;;;;;;9.23;3.22;;;11.50;99.20;;;;;;5021621;28;20022;-87
2023/04/26 09:20:32;;;;;;;13.98;3.80;;;11.50;99.70;;;;;;5008245;28;20049;-88
2023/04/26 09:23:06;;;;;;;6.55;3.17;;;11.70;99.70;;;;;;5019280;28;20077;-86
2023/04/26 09:25:32;;;;;;;11.75;2.97;;;;;;;;;;5024641;28;20034;-88
2023/04/26 09:27:59;;;;;;;6.75;3.17;;;11.90;98.20;;;;;;5006759;28;20029;-87
2023/04/26 09:30:26;;;;;;;10.45;3.33;;;12.00;98.30;;;;;;5024497;28;20022;-87
2023/04/26 09:32:57;;;;;;;8.32;3.13;;;12.20;97.50;;;;;;5023665;28;20030;-89
2023/04/26 09:35:26;;;;;;;9.43;3.13;;;;;;;;;;5020860;28;20049;-90
2023/04/26 09:38:03;;;;;;;6.13;2.75;;;12.30;96.70;;;;;;5024467;28;20042;-88
2023/04/26 09:40:37;;;;;;;9.05;3.10;;;12.50;94.30;;;;;;5013367;28;20029;-88
2023/04/26 09:43:05;;;;;;;9.27;3.08;;;12.70;93.80;;;;;;5023287;28;21094;-88
2023/04/26 09:45:41;;;;;;;8.68;2.90;;;12.70;93.20;;;;;;5008546;28;20018;-88
2023/04/26 09:48:15;;;;;;;6.50;2.70;;;;;;;;;;5010545;28;20045;-87
2023/04/26 09:50:45;;;;;;;6.72;2.70;;;12.80;93.10;;;;;;5023501;28;20006;-88
2023/04/26 09:53:25;;;;;;;6.57;2.72;;;12.90;92.80;;;;;;5006045;28;20046;-87
2023/04/26 09:55:51;;;;;;;5.00;2.70;;;;;;;;;;5024202;28;20042;-89
2023/04/26 09:58:17;;;;;;;5.90;2.80;;;;;;;;;;5007819;28;20053;-87
2023/04/26 10:00:44;;;;;;;6.80;2.38;;;13.00;92.10;;;;;;5007347;28;20027;-87
2023/04/26 10:03:11;;;;;;;7.15;2.63;;;;;;;;;;5025114;28;20022;-90
2023/04/26 10:05:37;;;;;;;7.78;2.45;;;;;;;;;;5005881;28;20041;-87
2023/04/26 10:08:03;;;;;;;4.53;2.50;;;;;;;;;;5007534;28;20038;-88
2023/04/26 10:10:30;;;;;;;5.97;2.55;;;;;;;;;;5026856;28;20026;-87
2023/04/26 10:12:56;;;;;;;6.60;3.00;;;;;;;;;;5002242;28;20027;-87
2023/04/26 10:15:22;;;;;;;8.18;2.65;;;;;;;;;;5008535;28;20076;-89
2023/04/26 10:17:48;;;;;;;7.53;2.88;;;;;;;;;;5017157;28;20022;-87
2023/04/26 10:20:17;;;;;;;10.55;5.63;;;12.30;90.60;;;;;;5013558;28;20106;-88
2023/04/26 10:22:45;;;;;;;11.30;4.15;;;;;;;;;;4997870;28;20030;-87
2023/04/26 10:25:11;;;;;;;6.75;2.80;;;;;;;;;;5013161;28;20021;-88
2023/04/26 10:27:47;;;;;;;5.95;3.10;;;12.40;91.50;;;;;;5003404;28;20026;-88
2023/04/26 10:30:14;;;;;;;7.30;2.92;;;12.40;90.90;;;;;;5010527;28;20038;-89
2023/04/26 10:32:52;;;;;;;7.18;3.08;;;;;;;;;;5008532;28;20022;-88
2023/04/26 10:35:18;;;;;;;6.90;2.72;;;12.60;90.60;;;;;;5014375;28;20017;-88
2023/04/26 10:38:00;;;;;;;9.48;2.90;;;;;;;;;;5026484;28;20037;-89
2023/04/26 10:40:27;;;;;;;7.07;2.40;;;12.80;88.90;;;;;;5014807;28;20040;-88
2023/04/26 10:43:14;;;;;;;7.53;3.05;;;;;;;;;;5028243;28;20036;-89
2023/04/26 10:45:44;;;;;;;7.93;3.30;;;12.80;89.20;;;;;;5006335;28;20014;-88
2023/04/26 10:48:30;;;;;;;6.07;2.45;;;12.90;88.80;;;;;;5020126;28;20033;-88
2023/04/26 10:51:01;;;;;;;8.23;2.90;;;12.70;89.40;;;;;;5029715;28;20033;-90
2023/04/26 10:53:45;;;;;;;7.80;2.97;;;12.90;89.80;;;;;;5016764;28;20038;-89
2023/04/26 10:56:26;;;;;;;7.45;2.80;;;13.10;89.30;;;;;;5000897;28;20030;-86
2023/04/26 10:59:13;;;;;;;5.95;2.72;;;13.10;87.70;;;;;;5008660;28;20015;-89
2023/04/26 11:01:39;;;;;;;7.07;2.72;;;;;;;;;;5012657;28;20010;-89
2023/04/26 11:04:10;;;;;;;4.75;2.50;;;13.40;86.00;;;;;;5005597;28;20031;-89
2023/04/26 11:06:53;;;;;;;5.55;3.03;;;13.70;85.80;;;;;;5015089;28;20010;-89
2023/04/26 11:09:47;;;;;;;8.57;2.70;;;13.60;85.40;;;;;;5015558;28;20046;-89
2023/04/26 11:12:15;;;;;;;4.80;2.22;;;13.90;84.10;;;;;;5006808;28;20033;-90
2023/04/26 11:14:42;;;;;;;6.15;2.42;;;13.90;83.90;;;;;;5007207;28;20026;-88
2023/04/26 11:17:08;;;;;;;6.85;2.53;;;14.20;82.80;;;;;;5012537;28;20030;-89
2023/04/26 11:19:34;;;;;;;5.15;2.55;;;;;;;;;;5012539;28;20056;-88
2023/04/26 11:22:01;;;;;;;7.15;2.60;;;;;;;;;;5006301;28;20017;-88
2023/04/26 11:24:27;;;;;;;5.30;2.25;;;;;;;;;;5011300;28;20025;-90
2023/04/26 11:26:57;;;;;;;7.50;3.03;;;14.30;81.20;;;;;;5012037;28;20041;-88
2023/04/26 11:29:23;;;;;;;4.93;2.22;;;;;;;;;;5020243;28;20033;-88
2023/04/26 11:31:57;;;;;;;8.15;2.40;;;14.80;80.50;;;;;;5012353;28;20034;-88
2023/04/26 11:34:35;;;;;;;6.10;2.63;;;15.00;80.10;;;;;;4999432;28;20053;-88
2023/04/26 11:37:06;;;;;;;10.63;3.13;;;15.20;79.50;;;;;;5002863;28;20018;-90
2023/04/26 11:39:33;;;;;;;8.50;2.92;;;;;;;;;;5002709;28;20031;-89
2023/04/26 11:42:08;;;;;;;5.90;2.60;;;15.20;79.20;;;;;;5006190;28;20085;-88
2023/04/26 11:44:34;;;;;;;5.70;2.40;;;;;;;;;;5019340;28;20025;-88
2023/04/26 11:47:02;;;;;;;7.82;2.17;;;;;;;;;;5013436;28;20076;-90
2023/04/26 11:49:29;;;;;;;5.97;2.25;;;;;;;;;;5002734;28;20090;-88
2023/04/26 11:51:55;;;;;;;8.93;2.30;;;;;;;;;;5001697;28;20030;-87
2023/04/26 11:54:28;;;;;;;6.43;2.55;;;;;;;;;;5017166;28;20106;-88
2023/04/26 11:56:54;;;;;;;7.05;2.40;;;;;;;;;;5002647;28;20019;-90
2023/04/26 11:59:31;;;;;;;6.30;2.35;;;15.60;77.00;;;;;;5017490;28;20061;-89
2023/04/26 12:01:57;;;;;;;7.43;2.38;;;;;;;;;;4998576;28;20070;-89
2023/04/26 12:04:28;;;;;;;7.00;2.00;;;;;;;;;;5017449;28;20069;-89
2023/04/26 12:06:54;;;;;;;8.75;2.10;;;;;;;;;;5017743;28;20035;-89
2023/04/26 12:09:30;;;;;;;7.57;2.20;;;;;;;;;;5020689;28;20054;-89
2023/04/26 12:12:01;;;;;;;9.23;2.15;;;16.10;74.70;;;;;;5012470;28;20026;-88
2023/04/26 12:14:39;;;;;;;6.88;2.47;;;16.10;74.20;;;;;;5007737;28;20034;-90
2023/04/26 12:17:06;;;;;;;6.80;2.85;;;16.20;73.20;;;;;;5003611;28;20026;-88
2023/04/26 12:19:36;;;;;;;5.45;2.03;;;16.20;72.90;;;;;;5012529;28;20010;-88
2023/04/26 12:22:02;;;;;;;7.78;2.10;;;;;;;;;;5020870;28;20034;-89
2023/04/26 12:24:32;;;;;;;6.68;2.00;;;16.30;74.60;;;;;;5029277;28;20034;-89
2023/04/26 12:26:58;;;;;;;5.80;2.30;;;;;;;;;;5024998;28;20048;-88
2023/04/26 12:29:24;;;;;;;4.82;2.00;;;;;;;;;;5013645;28;20034;-89
2023/04/26 12:31:50;;;;;;;3.85;1.90;;;;;;;;;;5007863;28;20034;-89
2023/04/26 12:34:19;;;;;;;7.18;2.10;;;;;;;;;;5010744;28;20100;-90
2023/04/26 12:36:45;;;;;;;4.80;1.90;;;;;;;;;;5027341;28;20022;-89
2023/04/26 12:39:13;;;;;;;6.07;2.08;;;;;;;;;;5009782;28;20014;-88
2023/04/26 12:41:39;;;;;;;7.57;1.92;;;;;;;;;;5013848;28;20013;-88
2023/04/26 12:44:05;;;;;;;9.75;1.90;;;;;;;;;;5011436;28;20025;-89
2023/04/26 12:46:31;;;;;;;6.07;2.05;;;;;;;;;;5028447;28;20016;-90
2023/04/26 12:48:58;;;;;;;5.35;2.05;;;;;;;;;;5012945;28;20022;-89
2023/04/26 12:51:24;;;;;;;12.55;2.20;;;;;;;;;;5006753;28;20034;-88
2023/04/26 12:53:50;;;;;;;6.20;2.38;;;;;;;;;;5006296;28;20054;-89
2023/04/26 12:56:16;;;;;;;8.68;2.20;;;;;;;;;;5011030;28;20011;-89
2023/04/26 12:58:42;;;;;;;7.93;2.15;;;;;;;;;;5007688;28;20062;-88
2023/04/26 13:01:09;;;;;;;5.95;1.88;;;;;;;;;;5008023;28;20009;-88
2023/04/26 13:03:35;;;;;;;5.97;2.10;;;;;;;;;;5015108;28;20068;-88
2023/04/26 13:06:01;;;;;;;5.40;2.15;;;;;;;;;;5023544;28;20014;-88
2023/04/26 13:08:27;;;;;;;7.13;2.42;;;16.70;70.50;;;;;;5004818;28;20007;-89
2023/04/26 13:10:53;;;;;;;5.63;2.10;;;;;;;;;;5005424;28;22383;-89
2023/04/26 13:13:19;;;;;;;4.45;1.90;;;;;;;;;;5010604;28;20038;-87
2023/04/26 13:15:46;;;;;;;5.22;1.90;;;;;;;;;;4998016;28;20031;-87
2023/04/26 13:18:14;;;;;;;5.72;1.80;;;;;;;;;;4996436;28;20026;-85
2023/04/26 13:20:40;;;;;;;5.25;1.98;;;;;;;;;;5006864;28;20049;-86
2023/04/26 13:23:06;;;;;;;6.45;2.40;;;;;;;;;;5006879;28;20091;-89
2023/04/26 13:25:32;;;;;;;6.57;2.13;;;;;;;;;;5005602;28;20415;-89
2023/04/26 13:27:58;;;;;;;6.03;1.98;;;;;;;;;;5024594;28;20026;-88
2023/04/26 13:30:25;;;;;;;6.88;1.95;;;;;;;;;;5002069;28;20137;-86
2023/04/26 13:32:51;;;;;;;6.60;1.90;;;;;;;;;;5004991;28;20034;-88
2023/04/26 13:35:17;;;;;;;8.45;2.05;;;;;;;;;;5025179;28;20025;-88
2023/04/26 13:37:43;;;;;;;5.35;1.95;;;;;;;;;;5006278;28;20017;-88
2023/04/26 13:40:12;;;;;;;4.55;1.70;;;;;;;;;;5009959;28;20022;-89
2023/04/26 13:42:38;;;;;;;6.95;2.00;;;;;;;;;;5024556;28;20013;-87
2023/04/26 13:45:13;;;;;;;4.20;1.92;;;16.60;68.90;;;;;;5005189;28;20036;-86
2023/04/26 13:47:39;;;;;;;5.60;2.20;;;;;;;;;;5027605;28;20504;-86
2023/04/26 13:50:05;;;;;;;6.45;1.83;;;;;;;;;;5008456;28;20031;-89
2023/04/26 13:52:31;;;;;;;5.80;2.05;;;;;;;;;;5008812;28;20042;-87
2023/04/26 13:54:57;;;;;;;5.05;2.20;;;;;;;;;;5025820;28;20098;-87
2023/04/26 13:57:23;;;;;;;4.47;1.92;;;;;;;;;;5027377;28;20029;-87
2023/04/26 13:59:50;;;;;;;4.68;2.05;;;;;;;;;;5009851;28;20014;-88
2023/04/26 14:02:16;;;;;;;4.28;1.80;;;;;;;;;;5020424;28;20093;-87
2023/04/26 14:04:42;;;;;;;4.80;1.88;;;;;;;;;;4997331;28;20033;-88
2023/04/26 14:07:08;;;;;;;8.15;2.10;;;16.30;67.60;;;;;;5005231;28;20041;-88
2023/04/26 14:09:34;;;;;;;4.72;1.90;;;;;;;;;;5002639;28;20508;-87
2023/04/26 14:12:00;;;;;;;7.25;1.83;;;;;;;;;;5008477;28;20006;-88
2023/04/26 14:14:29;;;;;;;5.82;1.65;;;;;;;;;;5002977;28;20026;-89
2023/04/26 14:16:58;;;;;;;5.47;1.58;;;;;;;;;;5020937;28;20082;-88
2023/04/26 14:19:25;;;;;;;5.40;1.75;;;;;;;;;;5008298;28;20033;-87